sensor_id;sensor_type;location;lat;lon;timestamp;P1;durP1;ratioP1;P2;durP2;ratioP2
23266;SDS011;11802;53.160;8.214;2024-03-07T00:00:06;17.80;;;10.70;;
23266;SDS011;11802;53.160;8.214;2024-03-07T00:02:43;17.13;;;11.77;;
23266;SDS011;11802;53.160;8.214;2024-03-07T00:05:15;18.23;;;11.37;;
23266;SDS011;11802;53.160;8.214;2024-03-07T00:07:42;19.93;;;12.17;;
23266;SDS011;11802;53.160;8.214;2024-03-07T00:10:08;18.40;;;11.20;;
23266;SDS011;11802;53.160;8.214;2024-03-07T00:12:34;20.33;;;12.57;;
23266;SDS011;11802;53.160;8.214;2024-03-07T00:15:00;16.70;;;11.60;;
23266;SDS011;11802;53.160;8.214;2024-03-07T00:17:30;20.23;;;12.00;;
23266;SDS011;11802;53.160;8.214;2024-03-07T00:19:56;17.70;;;11.50;;
23266;SDS011;11802;53.160;8.214;2024-03-07T00:22:22;18.07;;;10.83;;
23266;SDS011;11802;53.160;8.214;2024-03-07T00:24:48;18.57;;;11.57;;
23266;SDS011;11802;53.160;8.214;2024-03-07T00:27:13;16.70;;;11.03;;
23266;SDS011;11802;53.160;8.214;2024-03-07T00:29:39;20.60;;;12.17;;
23266;SDS011;11802;53.160;8.214;2024-03-07T00:35:00;19.03;;;12.20;;
23266;SDS011;11802;53.160;8.214;2024-03-07T00:37:28;18.67;;;12.50;;
23266;SDS011;11802;53.160;8.214;2024-03-07T00:39:53;16.33;;;11.93;;
23266;SDS011;11802;53.160;8.214;2024-03-07T00:42:19;17.57;;;11.97;;
23266;SDS011;11802;53.160;8.214;2024-03-07T00:44:44;20.23;;;12.57;;
23266;SDS011;11802;53.160;8.214;2024-03-07T00:47:10;21.30;;;13.20;;
23266;SDS011;11802;53.160;8.214;2024-03-07T00:49:36;19.40;;;13.10;;
23266;SDS011;11802;53.160;8.214;2024-03-07T00:52:02;21.20;;;14.07;;
23266;SDS011;11802;53.160;8.214;2024-03-07T00:54:27;19.67;;;13.53;;
23266;SDS011;11802;53.160;8.214;2024-03-07T00:56:53;22.07;;;14.07;;
23266;SDS011;11802;53.160;8.214;2024-03-07T00:59:20;20.33;;;13.97;;
23266;SDS011;11802;53.160;8.214;2024-03-07T01:01:45;19.67;;;13.47;;
23266;SDS011;11802;53.160;8.214;2024-03-07T01:04:11;22.00;;;13.63;;
23266;SDS011;11802;53.160;8.214;2024-03-07T01:06:37;23.13;;;14.27;;
23266;SDS011;11802;53.160;8.214;2024-03-07T01:09:02;21.10;;;14.67;;
23266;SDS011;11802;53.160;8.214;2024-03-07T01:11:28;21.13;;;14.37;;
23266;SDS011;11802;53.160;8.214;2024-03-07T01:13:54;24.00;;;15.03;;
23266;SDS011;11802;53.160;8.214;2024-03-07T01:16:20;28.43;;;16.03;;
23266;SDS011;11802;53.160;8.214;2024-03-07T01:18:46;22.73;;;14.70;;
23266;SDS011;11802;53.160;8.214;2024-03-07T01:21:12;25.43;;;15.40;;
23266;SDS011;11802;53.160;8.214;2024-03-07T01:23:38;23.83;;;15.30;;
23266;SDS011;11802;53.160;8.214;2024-03-07T01:26:03;24.50;;;16.20;;
23266;SDS011;11802;53.160;8.214;2024-03-07T01:28:29;22.37;;;15.53;;
23266;SDS011;11802;53.160;8.214;2024-03-07T01:30:55;25.40;;;16.53;;
23266;SDS011;11802;53.160;8.214;2024-03-07T01:33:22;25.53;;;16.20;;
23266;SDS011;11802;53.160;8.214;2024-03-07T01:35:47;25.47;;;17.33;;
23266;SDS011;11802;53.160;8.214;2024-03-07T01:38:13;28.50;;;17.30;;
23266;SDS011;11802;53.160;8.214;2024-03-07T01:40:40;25.73;;;16.13;;
23266;SDS011;11802;53.160;8.214;2024-03-07T01:43:06;27.17;;;17.00;;
23266;SDS011;11802;53.160;8.214;2024-03-07T01:45:33;30.03;;;19.07;;
23266;SDS011;11802;53.160;8.214;2024-03-07T01:47:59;25.33;;;16.93;;
23266;SDS011;11802;53.160;8.214;2024-03-07T01:50:25;25.63;;;16.23;;
23266;SDS011;11802;53.160;8.214;2024-03-07T01:52:51;28.63;;;18.07;;
23266;SDS011;11802;53.160;8.214;2024-03-07T01:55:20;28.90;;;18.93;;
23266;SDS011;11802;53.160;8.214;2024-03-07T01:57:47;28.20;;;18.53;;
23266;SDS011;11802;53.160;8.214;2024-03-07T02:00:13;27.20;;;17.57;;
23266;SDS011;11802;53.160;8.214;2024-03-07T02:02:39;29.87;;;18.03;;
23266;SDS011;11802;53.160;8.214;2024-03-07T02:05:04;27.83;;;18.03;;
23266;SDS011;11802;53.160;8.214;2024-03-07T02:07:31;29.37;;;18.40;;
23266;SDS011;11802;53.160;8.214;2024-03-07T02:10:03;26.23;;;17.23;;
23266;SDS011;11802;53.160;8.214;2024-03-07T02:12:32;33.23;;;18.63;;
23266;SDS011;11802;53.160;8.214;2024-03-07T02:14:58;27.97;;;17.77;;
23266;SDS011;11802;53.160;8.214;2024-03-07T02:17:24;28.93;;;18.93;;
23266;SDS011;11802;53.160;8.214;2024-03-07T02:19:53;27.50;;;18.60;;
23266;SDS011;11802;53.160;8.214;2024-03-07T02:22:19;30.57;;;19.07;;
23266;SDS011;11802;53.160;8.214;2024-03-07T02:24:45;28.80;;;18.13;;
23266;SDS011;11802;53.160;8.214;2024-03-07T02:27:11;31.47;;;19.47;;
23266;SDS011;11802;53.160;8.214;2024-03-07T02:29:37;30.97;;;19.73;;
23266;SDS011;11802;53.160;8.214;2024-03-07T02:32:04;29.10;;;18.57;;
23266;SDS011;11802;53.160;8.214;2024-03-07T02:34:30;30.50;;;19.13;;
23266;SDS011;11802;53.160;8.214;2024-03-07T02:36:55;31.13;;;20.07;;
23266;SDS011;11802;53.160;8.214;2024-03-07T02:39:21;33.80;;;20.77;;
23266;SDS011;11802;53.160;8.214;2024-03-07T02:41:47;37.63;;;21.57;;
23266;SDS011;11802;53.160;8.214;2024-03-07T02:44:13;32.73;;;19.53;;
23266;SDS011;11802;53.160;8.214;2024-03-07T02:46:39;37.43;;;22.17;;
23266;SDS011;11802;53.160;8.214;2024-03-07T02:49:05;35.50;;;22.13;;
23266;SDS011;11802;53.160;8.214;2024-03-07T02:51:31;33.97;;;21.03;;
23266;SDS011;11802;53.160;8.214;2024-03-07T02:53:56;35.43;;;20.87;;
23266;SDS011;11802;53.160;8.214;2024-03-07T02:56:22;37.07;;;22.00;;
23266;SDS011;11802;53.160;8.214;2024-03-07T02:58:49;40.53;;;22.80;;
23266;SDS011;11802;53.160;8.214;2024-03-07T03:01:14;39.43;;;22.40;;
23266;SDS011;11802;53.160;8.214;2024-03-07T03:03:43;39.70;;;24.43;;
23266;SDS011;11802;53.160;8.214;2024-03-07T03:06:09;41.43;;;23.37;;
23266;SDS011;11802;53.160;8.214;2024-03-07T03:08:36;42.63;;;23.50;;
23266;SDS011;11802;53.160;8.214;2024-03-07T03:11:02;41.70;;;24.80;;
23266;SDS011;11802;53.160;8.214;2024-03-07T03:13:28;43.80;;;24.50;;
23266;SDS011;11802;53.160;8.214;2024-03-07T03:15:55;43.57;;;25.53;;
23266;SDS011;11802;53.160;8.214;2024-03-07T03:18:24;46.80;;;25.47;;
23266;SDS011;11802;53.160;8.214;2024-03-07T03:20:50;48.37;;;25.67;;
23266;SDS011;11802;53.160;8.214;2024-03-07T03:23:16;49.13;;;26.93;;
23266;SDS011;11802;53.160;8.214;2024-03-07T03:25:42;53.33;;;27.30;;
23266;SDS011;11802;53.160;8.214;2024-03-07T03:28:08;49.70;;;28.13;;
23266;SDS011;11802;53.160;8.214;2024-03-07T03:30:36;53.67;;;29.73;;
23266;SDS011;11802;53.160;8.214;2024-03-07T03:33:06;61.80;;;28.83;;
23266;SDS011;11802;53.160;8.214;2024-03-07T03:35:33;59.87;;;28.50;;
23266;SDS011;11802;53.160;8.214;2024-03-07T03:37:59;59.90;;;30.10;;
23266;SDS011;11802;53.160;8.214;2024-03-07T03:40:24;60.37;;;28.27;;
23266;SDS011;11802;53.160;8.214;2024-03-07T03:42:50;58.83;;;29.20;;
23266;SDS011;11802;53.160;8.214;2024-03-07T03:45:16;58.87;;;28.33;;
23266;SDS011;11802;53.160;8.214;2024-03-07T03:47:43;63.73;;;28.37;;
23266;SDS011;11802;53.160;8.214;2024-03-07T03:50:09;60.50;;;29.13;;
23266;SDS011;11802;53.160;8.214;2024-03-07T03:52:39;68.83;;;29.97;;
23266;SDS011;11802;53.160;8.214;2024-03-07T03:55:05;73.00;;;30.20;;
23266;SDS011;11802;53.160;8.214;2024-03-07T03:57:32;66.77;;;30.03;;
23266;SDS011;11802;53.160;8.214;2024-03-07T03:59:58;85.43;;;30.27;;
23266;SDS011;11802;53.160;8.214;2024-03-07T04:02:25;75.97;;;30.73;;
23266;SDS011;11802;53.160;8.214;2024-03-07T04:04:51;95.17;;;31.80;;
23266;SDS011;11802;53.160;8.214;2024-03-07T04:07:17;84.13;;;30.73;;
23266;SDS011;11802;53.160;8.214;2024-03-07T04:09:44;78.37;;;31.77;;
23266;SDS011;11802;53.160;8.214;2024-03-07T04:12:10;71.20;;;32.47;;
23266;SDS011;11802;53.160;8.214;2024-03-07T04:14:37;75.67;;;31.40;;
23266;SDS011;11802;53.160;8.214;2024-03-07T04:17:04;76.43;;;32.03;;
23266;SDS011;11802;53.160;8.214;2024-03-07T04:19:32;79.73;;;31.97;;
23266;SDS011;11802;53.160;8.214;2024-03-07T04:21:58;76.70;;;32.47;;
23266;SDS011;11802;53.160;8.214;2024-03-07T04:24:24;75.77;;;31.87;;
23266;SDS011;11802;53.160;8.214;2024-03-07T04:26:50;81.50;;;32.60;;
23266;SDS011;11802;53.160;8.214;2024-03-07T04:29:18;76.37;;;32.70;;
23266;SDS011;11802;53.160;8.214;2024-03-07T04:31:44;74.97;;;31.90;;
23266;SDS011;11802;53.160;8.214;2024-03-07T04:34:09;63.87;;;30.03;;
23266;SDS011;11802;53.160;8.214;2024-03-07T04:36:35;74.80;;;30.80;;
23266;SDS011;11802;53.160;8.214;2024-03-07T04:39:00;68.27;;;30.90;;
23266;SDS011;11802;53.160;8.214;2024-03-07T04:41:29;74.00;;;30.47;;
23266;SDS011;11802;53.160;8.214;2024-03-07T04:43:55;77.10;;;31.43;;
23266;SDS011;11802;53.160;8.214;2024-03-07T04:46:20;72.20;;;31.70;;
23266;SDS011;11802;53.160;8.214;2024-03-07T04:48:46;71.83;;;32.93;;
23266;SDS011;11802;53.160;8.214;2024-03-07T04:51:11;76.87;;;32.83;;
23266;SDS011;11802;53.160;8.214;2024-03-07T04:53:39;75.73;;;32.57;;
23266;SDS011;11802;53.160;8.214;2024-03-07T04:56:07;73.60;;;31.53;;
23266;SDS011;11802;53.160;8.214;2024-03-07T04:58:34;86.33;;;33.30;;
23266;SDS011;11802;53.160;8.214;2024-03-07T05:01:00;81.70;;;33.27;;
23266;SDS011;11802;53.160;8.214;2024-03-07T05:03:27;72.07;;;30.70;;
23266;SDS011;11802;53.160;8.214;2024-03-07T05:05:53;73.63;;;32.73;;
23266;SDS011;11802;53.160;8.214;2024-03-07T05:08:18;75.40;;;30.97;;
23266;SDS011;11802;53.160;8.214;2024-03-07T05:10:44;78.53;;;31.30;;
23266;SDS011;11802;53.160;8.214;2024-03-07T05:13:09;68.40;;;30.03;;
23266;SDS011;11802;53.160;8.214;2024-03-07T05:15:35;77.23;;;30.70;;
23266;SDS011;11802;53.160;8.214;2024-03-07T05:18:01;82.73;;;31.07;;
23266;SDS011;11802;53.160;8.214;2024-03-07T05:20:27;77.97;;;33.23;;
23266;SDS011;11802;53.160;8.214;2024-03-07T05:22:53;75.33;;;33.00;;
23266;SDS011;11802;53.160;8.214;2024-03-07T05:25:19;77.70;;;31.13;;
23266;SDS011;11802;53.160;8.214;2024-03-07T05:27:47;78.63;;;30.47;;
23266;SDS011;11802;53.160;8.214;2024-03-07T05:30:15;81.30;;;32.60;;
23266;SDS011;11802;53.160;8.214;2024-03-07T05:32:42;79.30;;;31.23;;
23266;SDS011;11802;53.160;8.214;2024-03-07T05:35:08;79.50;;;32.03;;
23266;SDS011;11802;53.160;8.214;2024-03-07T05:37:34;83.27;;;34.00;;
23266;SDS011;11802;53.160;8.214;2024-03-07T05:39:59;75.63;;;31.90;;
23266;SDS011;11802;53.160;8.214;2024-03-07T05:42:25;80.60;;;34.97;;
23266;SDS011;11802;53.160;8.214;2024-03-07T05:44:51;84.97;;;34.47;;
23266;SDS011;11802;53.160;8.214;2024-03-07T05:47:19;86.20;;;34.57;;
23266;SDS011;11802;53.160;8.214;2024-03-07T05:49:44;81.30;;;34.77;;
23266;SDS011;11802;53.160;8.214;2024-03-07T05:52:10;81.07;;;32.23;;
23266;SDS011;11802;53.160;8.214;2024-03-07T05:54:35;80.57;;;33.97;;
23266;SDS011;11802;53.160;8.214;2024-03-07T05:57:01;82.53;;;34.77;;
23266;SDS011;11802;53.160;8.214;2024-03-07T05:59:27;83.23;;;34.57;;
23266;SDS011;11802;53.160;8.214;2024-03-07T06:01:53;90.60;;;34.17;;
23266;SDS011;11802;53.160;8.214;2024-03-07T06:04:20;71.33;;;32.43;;
23266;SDS011;11802;53.160;8.214;2024-03-07T06:06:46;82.70;;;33.70;;
23266;SDS011;11802;53.160;8.214;2024-03-07T06:09:12;73.47;;;31.83;;
23266;SDS011;11802;53.160;8.214;2024-03-07T06:11:39;76.13;;;33.10;;
23266;SDS011;11802;53.160;8.214;2024-03-07T06:14:07;79.97;;;33.13;;
23266;SDS011;11802;53.160;8.214;2024-03-07T06:16:37;77.07;;;33.07;;
23266;SDS011;11802;53.160;8.214;2024-03-07T06:19:03;76.80;;;32.60;;
23266;SDS011;11802;53.160;8.214;2024-03-07T06:21:32;82.13;;;34.73;;
23266;SDS011;11802;53.160;8.214;2024-03-07T06:24:01;79.37;;;34.57;;
23266;SDS011;11802;53.160;8.214;2024-03-07T06:26:28;80.60;;;33.03;;
23266;SDS011;11802;53.160;8.214;2024-03-07T06:29:16;77.03;;;32.80;;
23266;SDS011;11802;53.160;8.214;2024-03-07T06:31:43;72.43;;;31.40;;
23266;SDS011;11802;53.160;8.214;2024-03-07T06:34:13;81.80;;;33.40;;
23266;SDS011;11802;53.160;8.214;2024-03-07T06:36:38;81.27;;;33.73;;
23266;SDS011;11802;53.160;8.214;2024-03-07T06:39:05;80.23;;;34.40;;
23266;SDS011;11802;53.160;8.214;2024-03-07T06:41:32;77.43;;;33.20;;
23266;SDS011;11802;53.160;8.214;2024-03-07T06:43:58;78.80;;;33.77;;
23266;SDS011;11802;53.160;8.214;2024-03-07T06:46:24;90.93;;;37.03;;
23266;SDS011;11802;53.160;8.214;2024-03-07T06:48:50;83.60;;;35.50;;
23266;SDS011;11802;53.160;8.214;2024-03-07T06:51:16;86.30;;;34.43;;
23266;SDS011;11802;53.160;8.214;2024-03-07T06:53:43;79.97;;;34.23;;
23266;SDS011;11802;53.160;8.214;2024-03-07T06:56:08;82.83;;;34.47;;
23266;SDS011;11802;53.160;8.214;2024-03-07T06:58:35;75.43;;;32.73;;
23266;SDS011;11802;53.160;8.214;2024-03-07T07:01:01;79.93;;;33.07;;
23266;SDS011;11802;53.160;8.214;2024-03-07T07:03:32;75.10;;;31.67;;
23266;SDS011;11802;53.160;8.214;2024-03-07T07:05:57;81.37;;;32.40;;
23266;SDS011;11802;53.160;8.214;2024-03-07T07:08:23;73.80;;;33.30;;
23266;SDS011;11802;53.160;8.214;2024-03-07T07:10:49;69.70;;;31.03;;
23266;SDS011;11802;53.160;8.214;2024-03-07T07:13:15;79.80;;;32.63;;
23266;SDS011;11802;53.160;8.214;2024-03-07T07:15:41;74.57;;;31.57;;
23266;SDS011;11802;53.160;8.214;2024-03-07T07:18:08;74.10;;;33.07;;
23266;SDS011;11802;53.160;8.214;2024-03-07T07:20:35;72.67;;;32.17;;
23266;SDS011;11802;53.160;8.214;2024-03-07T07:23:01;68.20;;;31.17;;
23266;SDS011;11802;53.160;8.214;2024-03-07T07:25:28;70.83;;;31.90;;
23266;SDS011;11802;53.160;8.214;2024-03-07T07:27:54;67.20;;;30.50;;
23266;SDS011;11802;53.160;8.214;2024-03-07T07:30:21;69.37;;;30.60;;
23266;SDS011;11802;53.160;8.214;2024-03-07T07:32:52;64.53;;;28.97;;
23266;SDS011;11802;53.160;8.214;2024-03-07T07:35:18;58.07;;;26.70;;
23266;SDS011;11802;53.160;8.214;2024-03-07T07:37:45;60.47;;;28.07;;
23266;SDS011;11802;53.160;8.214;2024-03-07T07:40:21;56.67;;;27.73;;
23266;SDS011;11802;53.160;8.214;2024-03-07T07:42:51;55.07;;;25.83;;
23266;SDS011;11802;53.160;8.214;2024-03-07T07:45:18;57.33;;;25.97;;
23266;SDS011;11802;53.160;8.214;2024-03-07T07:47:45;52.23;;;24.57;;
23266;SDS011;11802;53.160;8.214;2024-03-07T07:50:19;56.43;;;25.40;;
23266;SDS011;11802;53.160;8.214;2024-03-07T07:52:46;52.77;;;25.30;;
23266;SDS011;11802;53.160;8.214;2024-03-07T07:55:20;49.03;;;25.13;;
23266;SDS011;11802;53.160;8.214;2024-03-07T07:57:47;51.27;;;24.43;;
23266;SDS011;11802;53.160;8.214;2024-03-07T08:00:17;48.83;;;23.63;;
23266;SDS011;11802;53.160;8.214;2024-03-07T08:03:06;46.10;;;23.87;;
23266;SDS011;11802;53.160;8.214;2024-03-07T08:05:35;42.43;;;23.07;;
23266;SDS011;11802;53.160;8.214;2024-03-07T08:08:02;44.43;;;21.67;;
23266;SDS011;11802;53.160;8.214;2024-03-07T08:10:30;45.87;;;23.20;;
23266;SDS011;11802;53.160;8.214;2024-03-07T08:12:57;41.03;;;20.63;;
23266;SDS011;11802;53.160;8.214;2024-03-07T08:15:25;46.87;;;22.70;;
23266;SDS011;11802;53.160;8.214;2024-03-07T08:17:52;39.57;;;21.10;;
23266;SDS011;11802;53.160;8.214;2024-03-07T08:20:20;49.33;;;22.17;;
23266;SDS011;11802;53.160;8.214;2024-03-07T08:22:47;40.63;;;20.90;;
23266;SDS011;11802;53.160;8.214;2024-03-07T08:25:17;42.13;;;20.90;;
23266;SDS011;11802;53.160;8.214;2024-03-07T08:27:45;39.17;;;21.37;;
23266;SDS011;11802;53.160;8.214;2024-03-07T08:30:12;42.10;;;21.47;;
23266;SDS011;11802;53.160;8.214;2024-03-07T08:32:47;40.67;;;18.90;;
23266;SDS011;11802;53.160;8.214;2024-03-07T08:35:14;47.90;;;21.53;;
23266;SDS011;11802;53.160;8.214;2024-03-07T08:37:42;41.57;;;20.70;;
23266;SDS011;11802;53.160;8.214;2024-03-07T08:40:09;43.40;;;21.33;;
23266;SDS011;11802;53.160;8.214;2024-03-07T08:42:39;41.97;;;20.97;;
23266;SDS011;11802;53.160;8.214;2024-03-07T08:45:07;42.70;;;21.63;;
23266;SDS011;11802;53.160;8.214;2024-03-07T08:47:35;46.37;;;20.47;;
23266;SDS011;11802;53.160;8.214;2024-03-07T08:50:02;38.60;;;20.77;;
23266;SDS011;11802;53.160;8.214;2024-03-07T08:52:33;41.53;;;20.40;;
23266;SDS011;11802;53.160;8.214;2024-03-07T08:55:03;41.93;;;21.30;;
23266;SDS011;11802;53.160;8.214;2024-03-07T08:57:29;41.03;;;21.00;;
23266;SDS011;11802;53.160;8.214;2024-03-07T08:59:55;39.83;;;21.13;;
23266;SDS011;11802;53.160;8.214;2024-03-07T09:02:21;39.03;;;20.17;;
23266;SDS011;11802;53.160;8.214;2024-03-07T09:04:47;37.20;;;20.57;;
23266;SDS011;11802;53.160;8.214;2024-03-07T09:07:13;39.23;;;21.43;;
23266;SDS011;11802;53.160;8.214;2024-03-07T09:09:42;40.40;;;21.40;;
23266;SDS011;11802;53.160;8.214;2024-03-07T09:12:08;42.90;;;22.07;;
23266;SDS011;11802;53.160;8.214;2024-03-07T09:14:34;39.50;;;21.87;;
23266;SDS011;11802;53.160;8.214;2024-03-07T09:17:00;42.27;;;22.30;;
23266;SDS011;11802;53.160;8.214;2024-03-07T09:19:26;40.63;;;21.80;;
23266;SDS011;11802;53.160;8.214;2024-03-07T09:21:53;45.27;;;23.60;;
23266;SDS011;11802;53.160;8.214;2024-03-07T09:24:19;43.23;;;22.73;;
23266;SDS011;11802;53.160;8.214;2024-03-07T09:26:51;45.73;;;22.27;;
23266;SDS011;11802;53.160;8.214;2024-03-07T09:29:17;37.40;;;20.77;;
23266;SDS011;11802;53.160;8.214;2024-03-07T09:31:44;42.10;;;21.77;;
23266;SDS011;11802;53.160;8.214;2024-03-07T09:34:20;44.73;;;21.97;;
23266;SDS011;11802;53.160;8.214;2024-03-07T09:36:49;45.80;;;22.17;;
23266;SDS011;11802;53.160;8.214;2024-03-07T09:39:15;42.27;;;22.00;;
23266;SDS011;11802;53.160;8.214;2024-03-07T09:41:41;42.60;;;22.33;;
23266;SDS011;11802;53.160;8.214;2024-03-07T09:44:08;36.97;;;21.50;;
23266;SDS011;11802;53.160;8.214;2024-03-07T09:46:38;40.53;;;21.10;;
23266;SDS011;11802;53.160;8.214;2024-03-07T09:49:05;39.93;;;20.87;;
23266;SDS011;11802;53.160;8.214;2024-03-07T09:51:33;38.97;;;20.33;;
23266;SDS011;11802;53.160;8.214;2024-03-07T09:54:00;41.70;;;20.70;;
23266;SDS011;11802;53.160;8.214;2024-03-07T09:56:27;35.37;;;21.77;;
23266;SDS011;11802;53.160;8.214;2024-03-07T09:58:56;37.67;;;20.70;;
23266;SDS011;11802;53.160;8.214;2024-03-07T10:01:25;39.73;;;20.40;;
23266;SDS011;11802;53.160;8.214;2024-03-07T10:03:57;35.40;;;19.33;;
23266;SDS011;11802;53.160;8.214;2024-03-07T10:06:26;37.27;;;19.30;;
23266;SDS011;11802;53.160;8.214;2024-03-07T10:08:54;40.33;;;20.20;;
23266;SDS011;11802;53.160;8.214;2024-03-07T10:11:20;34.57;;;20.27;;
23266;SDS011;11802;53.160;8.214;2024-03-07T10:13:56;33.40;;;18.83;;
23266;SDS011;11802;53.160;8.214;2024-03-07T10:16:28;38.47;;;20.13;;
23266;SDS011;11802;53.160;8.214;2024-03-07T10:18:54;35.73;;;18.40;;
23266;SDS011;11802;53.160;8.214;2024-03-07T10:21:19;31.83;;;18.77;;
23266;SDS011;11802;53.160;8.214;2024-03-07T10:23:49;37.07;;;20.50;;
23266;SDS011;11802;53.160;8.214;2024-03-07T10:26:18;33.87;;;18.23;;
23266;SDS011;11802;53.160;8.214;2024-03-07T10:28:44;33.83;;;19.20;;
23266;SDS011;11802;53.160;8.214;2024-03-07T10:31:12;38.90;;;20.80;;
23266;SDS011;11802;53.160;8.214;2024-03-07T10:33:57;35.90;;;19.60;;
23266;SDS011;11802;53.160;8.214;2024-03-07T10:36:29;35.30;;;21.03;;
23266;SDS011;11802;53.160;8.214;2024-03-07T10:38:59;39.50;;;20.83;;
23266;SDS011;11802;53.160;8.214;2024-03-07T10:41:28;36.03;;;19.47;;
23266;SDS011;11802;53.160;8.214;2024-03-07T10:46:54;29.40;;;18.80;;
23266;SDS011;11802;53.160;8.214;2024-03-07T10:49:22;33.80;;;19.93;;
23266;SDS011;11802;53.160;8.214;2024-03-07T10:57:45;35.77;;;20.00;;
23266;SDS011;11802;53.160;8.214;2024-03-07T11:00:20;32.10;;;18.83;;
23266;SDS011;11802;53.160;8.214;2024-03-07T11:03:04;32.57;;;17.73;;
23266;SDS011;11802;53.160;8.214;2024-03-07T11:05:34;31.80;;;19.13;;
23266;SDS011;11802;53.160;8.214;2024-03-07T11:08:01;36.60;;;19.03;;
23266;SDS011;11802;53.160;8.214;2024-03-07T11:10:32;35.57;;;19.80;;
23266;SDS011;11802;53.160;8.214;2024-03-07T11:13:02;34.90;;;20.07;;
23266;SDS011;11802;53.160;8.214;2024-03-07T11:15:34;36.63;;;21.00;;
23266;SDS011;11802;53.160;8.214;2024-03-07T11:18:01;34.17;;;20.07;;
23266;SDS011;11802;53.160;8.214;2024-03-07T11:20:35;36.60;;;19.27;;
23266;SDS011;11802;53.160;8.214;2024-03-07T11:23:24;35.57;;;20.30;;
23266;SDS011;11802;53.160;8.214;2024-03-07T11:26:00;37.20;;;21.07;;
23266;SDS011;11802;53.160;8.214;2024-03-07T11:28:32;35.13;;;19.57;;
23266;SDS011;11802;53.160;8.214;2024-03-07T11:31:15;34.43;;;19.37;;
23266;SDS011;11802;53.160;8.214;2024-03-07T11:36:42;39.23;;;20.27;;
23266;SDS011;11802;53.160;8.214;2024-03-07T11:42:19;34.13;;;19.33;;
23266;SDS011;11802;53.160;8.214;2024-03-07T11:44:48;39.50;;;20.07;;
23266;SDS011;11802;53.160;8.214;2024-03-07T11:47:18;33.33;;;19.90;;
23266;SDS011;11802;53.160;8.214;2024-03-07T11:49:44;33.57;;;19.33;;
23266;SDS011;11802;53.160;8.214;2024-03-07T11:52:33;35.87;;;21.27;;
23266;SDS011;11802;53.160;8.214;2024-03-07T11:55:01;32.23;;;20.03;;
23266;SDS011;11802;53.160;8.214;2024-03-07T11:57:31;30.63;;;18.60;;
23266;SDS011;11802;53.160;8.214;2024-03-07T11:59:59;35.60;;;19.77;;
23266;SDS011;11802;53.160;8.214;2024-03-07T12:02:54;38.10;;;20.67;;
23266;SDS011;11802;53.160;8.214;2024-03-07T12:05:23;33.87;;;19.90;;
23266;SDS011;11802;53.160;8.214;2024-03-07T12:07:52;36.60;;;20.43;;
23266;SDS011;11802;53.160;8.214;2024-03-07T12:10:30;34.70;;;19.23;;
23266;SDS011;11802;53.160;8.214;2024-03-07T12:13:05;36.20;;;20.27;;
23266;SDS011;11802;53.160;8.214;2024-03-07T12:15:48;33.30;;;20.77;;
23266;SDS011;11802;53.160;8.214;2024-03-07T12:18:18;37.10;;;20.27;;
23266;SDS011;11802;53.160;8.214;2024-03-07T12:20:48;36.13;;;19.87;;
23266;SDS011;11802;53.160;8.214;2024-03-07T12:23:19;32.37;;;18.63;;
23266;SDS011;11802;53.160;8.214;2024-03-07T12:25:47;33.40;;;19.73;;
23266;SDS011;11802;53.160;8.214;2024-03-07T12:28:13;35.50;;;20.37;;
23266;SDS011;11802;53.160;8.214;2024-03-07T12:33:10;42.63;;;24.67;;
23266;SDS011;11802;53.160;8.214;2024-03-07T12:35:39;40.43;;;22.77;;
23266;SDS011;11802;53.160;8.214;2024-03-07T12:38:08;40.70;;;22.03;;
23266;SDS011;11802;53.160;8.214;2024-03-07T12:40:40;41.77;;;23.40;;
23266;SDS011;11802;53.160;8.214;2024-03-07T12:43:16;37.23;;;22.90;;
23266;SDS011;11802;53.160;8.214;2024-03-07T12:45:52;43.40;;;22.60;;
23266;SDS011;11802;53.160;8.214;2024-03-07T12:48:19;45.93;;;23.97;;
23266;SDS011;11802;53.160;8.214;2024-03-07T12:50:48;45.00;;;23.30;;
23266;SDS011;11802;53.160;8.214;2024-03-07T12:53:23;41.07;;;24.30;;
23266;SDS011;11802;53.160;8.214;2024-03-07T12:55:50;37.07;;;22.40;;
23266;SDS011;11802;53.160;8.214;2024-03-07T12:58:17;39.57;;;23.37;;
23266;SDS011;11802;53.160;8.214;2024-03-07T13:00:44;38.60;;;23.37;;
23266;SDS011;11802;53.160;8.214;2024-03-07T13:03:10;34.37;;;21.00;;
23266;SDS011;11802;53.160;8.214;2024-03-07T13:05:39;36.63;;;20.83;;
23266;SDS011;11802;53.160;8.214;2024-03-07T13:08:14;34.87;;;20.57;;
23266;SDS011;11802;53.160;8.214;2024-03-07T13:10:43;38.50;;;21.10;;
23266;SDS011;11802;53.160;8.214;2024-03-07T13:13:09;37.37;;;21.33;;
23266;SDS011;11802;53.160;8.214;2024-03-07T13:15:36;34.60;;;19.40;;
23266;SDS011;11802;53.160;8.214;2024-03-07T13:18:03;36.57;;;20.83;;
23266;SDS011;11802;53.160;8.214;2024-03-07T13:20:30;30.30;;;18.97;;
23266;SDS011;11802;53.160;8.214;2024-03-07T13:22:56;31.53;;;19.47;;
23266;SDS011;11802;53.160;8.214;2024-03-07T13:25:23;30.53;;;18.57;;
23266;SDS011;11802;53.160;8.214;2024-03-07T13:27:57;38.37;;;20.40;;
23266;SDS011;11802;53.160;8.214;2024-03-07T13:30:29;35.60;;;18.87;;
23266;SDS011;11802;53.160;8.214;2024-03-07T13:32:55;31.80;;;18.33;;
23266;SDS011;11802;53.160;8.214;2024-03-07T13:35:22;30.77;;;18.47;;
23266;SDS011;11802;53.160;8.214;2024-03-07T13:37:50;32.80;;;19.07;;
23266;SDS011;11802;53.160;8.214;2024-03-07T13:40:16;27.47;;;16.30;;
23266;SDS011;11802;53.160;8.214;2024-03-07T13:42:51;27.17;;;16.30;;
23266;SDS011;11802;53.160;8.214;2024-03-07T13:45:20;28.67;;;17.77;;
23266;SDS011;11802;53.160;8.214;2024-03-07T13:47:47;27.43;;;17.27;;
23266;SDS011;11802;53.160;8.214;2024-03-07T13:50:14;30.60;;;19.07;;
23266;SDS011;11802;53.160;8.214;2024-03-07T13:52:42;25.90;;;15.90;;
23266;SDS011;11802;53.160;8.214;2024-03-07T13:55:19;26.00;;;13.77;;
23266;SDS011;11802;53.160;8.214;2024-03-07T13:57:49;21.57;;;13.50;;
23266;SDS011;11802;53.160;8.214;2024-03-07T14:06:08;29.13;;;17.23;;
23266;SDS011;11802;53.160;8.214;2024-03-07T14:22:54;32.53;;;19.27;;
23266;SDS011;11802;53.160;8.214;2024-03-07T14:25:49;31.30;;;19.17;;
23266;SDS011;11802;53.160;8.214;2024-03-07T14:31:30;33.93;;;21.07;;
23266;SDS011;11802;53.160;8.214;2024-03-07T14:36:32;33.53;;;20.43;;
23266;SDS011;11802;53.160;8.214;2024-03-07T14:39:11;38.77;;;23.10;;
23266;SDS011;11802;53.160;8.214;2024-03-07T14:41:55;36.87;;;23.40;;
23266;SDS011;11802;53.160;8.214;2024-03-07T14:44:24;43.50;;;24.77;;
23266;SDS011;11802;53.160;8.214;2024-03-07T14:46:53;38.43;;;24.00;;
23266;SDS011;11802;53.160;8.214;2024-03-07T14:49:25;42.70;;;25.93;;
23266;SDS011;11802;53.160;8.214;2024-03-07T14:51:52;45.23;;;27.90;;
23266;SDS011;11802;53.160;8.214;2024-03-07T14:54:19;45.17;;;28.07;;
23266;SDS011;11802;53.160;8.214;2024-03-07T14:56:48;42.63;;;24.13;;
23266;SDS011;11802;53.160;8.214;2024-03-07T14:59:14;52.10;;;32.10;;
23266;SDS011;11802;53.160;8.214;2024-03-07T15:01:40;51.90;;;29.60;;
23266;SDS011;11802;53.160;8.214;2024-03-07T15:04:06;61.60;;;32.90;;
23266;SDS011;11802;53.160;8.214;2024-03-07T15:06:35;43.80;;;26.57;;
23266;SDS011;11802;53.160;8.214;2024-03-07T15:09:01;45.43;;;27.00;;
23266;SDS011;11802;53.160;8.214;2024-03-07T15:11:29;50.30;;;28.70;;